Hovedside
METAR-TAF:

METAR-TAF

Lufthavner :

OR Tambo internasjonale lufthavn

Johannesburg, Sør-Afrika

breddegrad: 26-08S, lengdegrad: 028-14E, høyde over havet: 1694 m

Gjeldene værobservasjon

Denne rapporten ble laget for 1 time og 0 minutter siden, klokken 03:00 UTC
Vind 7 kt fra Sør
Temperatur 9°C
Luftfuktighet 40%
Trykk 1025 hPa
Sikt 10 km eller mer
ingen skyer under 1500 m og ingen bygeskyer

METAR: FAOR 200300Z 19007KT CAVOK 09/M04 Q1025 NOSIG

Tid: 06:00 (04:00 UTC)

Varsel

Denne rapporten ble laget for 6 timer og 0 minutter siden, klokken 22:00 UTC
Varsel gyldig fra 20. klokken 00 UTC til 21. klokken 06 UTC
Vind 10 kt fra Sør-sørøst
Sikt 10 km eller mer
ingen skyer under 1500 m og ingen bygeskyer
Blir
fra 20. klokken 08 UTC til 20. klokken 10 UTC
Vind 15 kt fra Nord-nordøst

TAF: FAOR 192200Z 2000/2106 16010KT CAVOK BECMG 2008/2010 03015KT TX28/2013Z TN11/2004Z

Værobservasjoner og værvarsel for over 4000 flyplasser (METAR- og TAF-rapporter).

Tilgjengelige stasjoner er representert av de røde og gule prikkene på kartet.

Hold musepekeren over prikken for å se navnet på stasjonen.

Klikk så for å se værobservasjoner og -varsler.

For å forandre kartet kan du klikke på den grønne knappen med svart kryss for å zoome inn, på den grønne knappen med strek for å zoome ut, eller på de grønne pilene for å se tilstøtende kart.


METAR-TAF: